createdAt,value
2019-01-27T00:00:19.805Z,6.80
2019-01-27T00:02:48.879Z,6.90
2019-01-27T00:05:17.937Z,6.80
2019-01-27T00:07:46.936Z,6.80
2019-01-27T00:10:16.084Z,6.80
2019-01-27T00:12:45.103Z,6.80
2019-01-27T00:15:14.170Z,6.90
2019-01-27T00:17:43.099Z,6.90
2019-01-27T00:20:12.345Z,6.90
2019-01-27T00:22:41.464Z,6.90
2019-01-27T00:25:10.767Z,7.00
2019-01-27T00:27:40.069Z,7.00
2019-01-27T00:30:14.592Z,7.00
2019-01-27T00:32:44.080Z,7.00
2019-01-27T00:35:13.178Z,7.00
2019-01-27T00:37:42.492Z,7.00
2019-01-27T00:40:11.818Z,6.90
2019-01-27T00:42:40.829Z,7.00
2019-01-27T00:45:11.393Z,7.00
2019-01-27T00:47:40.409Z,6.90
2019-01-27T00:50:10.601Z,7.00
2019-01-27T00:52:39.613Z,6.90
2019-01-27T00:55:12.397Z,7.00
2019-01-27T00:57:41.779Z,6.90
2019-01-27T01:00:13.708Z,6.90
2019-01-27T01:02:42.800Z,7.00
2019-01-27T01:05:12.169Z,7.00
2019-01-27T01:07:41.450Z,7.00
2019-01-27T01:10:11.557Z,7.00
2019-01-27T01:12:40.576Z,7.00
2019-01-27T01:15:10.877Z,7.00
2019-01-27T01:17:39.956Z,7.00
2019-01-27T01:20:11.537Z,7.00
2019-01-27T01:22:41.369Z,6.90
2019-01-27T01:25:16.230Z,6.90
2019-01-27T01:27:45.352Z,6.90
2019-01-27T01:30:16.196Z,6.90
2019-01-27T01:32:45.208Z,6.90
2019-01-27T01:35:14.432Z,6.90
2019-01-27T01:37:43.451Z,6.90
2019-01-27T01:40:15.137Z,6.90
2019-01-27T01:42:44.482Z,7.00
2019-01-27T01:45:21.936Z,6.90
2019-01-27T01:47:51.269Z,6.90
2019-01-27T01:50:20.686Z,7.10
2019-01-27T01:52:49.702Z,7.20
2019-01-27T01:55:18.970Z,7.20
2019-01-27T01:57:47.985Z,7.10
2019-01-27T02:00:19.771Z,7.10
2019-01-27T02:02:48.904Z,7.00
2019-01-27T02:05:19.000Z,7.00
2019-01-27T02:07:48.347Z,7.00
2019-01-27T02:10:19.046Z,7.00
2019-01-27T02:12:48.717Z,6.90
2019-01-27T02:16:02.072Z,6.90
2019-01-27T02:18:31.621Z,7.00
2019-01-27T02:21:00.924Z,7.00
2019-01-27T02:23:29.937Z,7.00
2019-01-27T02:25:59.228Z,7.00
2019-01-27T02:28:28.364Z,6.90
2019-01-27T02:30:57.420Z,7.00
2019-01-27T02:33:26.440Z,7.10
2019-01-27T02:35:55.435Z,7.00
2019-01-27T02:38:24.439Z,7.00
2019-01-27T02:40:53.441Z,7.10
2019-01-27T02:43:22.449Z,7.20
2019-01-27T02:45:51.469Z,7.10
2019-01-27T02:48:20.887Z,7.20
2019-01-27T02:50:49.795Z,7.30
2019-01-27T02:53:18.740Z,7.30
2019-01-27T02:55:47.596Z,7.10
2019-01-27T02:58:16.673Z,7.20
2019-01-27T03:00:46.057Z,7.30
2019-01-27T03:03:15.420Z,7.30
2019-01-27T03:05:53.608Z,7.30
2019-01-27T03:08:22.964Z,7.40
2019-01-27T03:10:52.262Z,7.40
2019-01-27T03:13:21.562Z,7.40
2019-01-27T03:15:50.862Z,7.40
2019-01-27T03:18:19.877Z,7.40
2019-01-27T03:20:48.728Z,7.30
2019-01-27T03:23:17.753Z,7.40
2019-01-27T03:25:47.461Z,7.30
2019-01-27T03:28:16.793Z,7.40
2019-01-27T03:30:45.741Z,7.40
2019-01-27T03:33:14.794Z,7.40
2019-01-27T03:35:43.792Z,7.40
2019-01-27T03:38:12.810Z,7.40
2019-01-27T03:40:41.810Z,7.40
2019-01-27T03:43:11.125Z,7.50
2019-01-27T03:45:40.116Z,7.40
2019-01-27T03:48:09.145Z,7.40
2019-01-27T03:50:38.078Z,7.50
2019-01-27T03:53:07.077Z,7.40
2019-01-27T03:55:36.101Z,7.40
2019-01-27T03:58:05.189Z,7.40
2019-01-27T04:00:34.133Z,7.60
2019-01-27T04:03:03.134Z,7.50
2019-01-27T04:05:32.171Z,7.50
2019-01-27T04:08:01.565Z,7.50
2019-01-27T04:10:30.575Z,7.50
2019-01-27T04:12:59.862Z,7.50
2019-01-27T04:15:28.808Z,7.40
2019-01-27T04:17:58.053Z,7.50
2019-01-27T04:20:27.357Z,7.60
2019-01-27T04:22:56.370Z,7.50
2019-01-27T04:25:25.330Z,7.50
2019-01-27T04:27:54.258Z,7.50
2019-01-27T04:30:29.237Z,7.60
2019-01-27T04:32:58.317Z,7.60
2019-01-27T04:35:27.364Z,7.70
2019-01-27T04:37:56.372Z,7.60
2019-01-27T04:40:26.049Z,7.60
2019-01-27T04:42:55.451Z,7.70
2019-01-27T04:45:29.154Z,7.80
2019-01-27T04:47:58.174Z,7.80
2019-01-27T04:50:27.865Z,7.90
2019-01-27T04:52:56.886Z,7.90
2019-01-27T04:55:25.925Z,7.90
2019-01-27T04:57:54.945Z,7.80
2019-01-27T05:00:24.526Z,7.70
2019-01-27T05:03:19.398Z,7.80
2019-01-27T05:05:48.567Z,7.80
2019-01-27T05:08:17.613Z,8.00
2019-01-27T05:10:46.661Z,8.00
2019-01-27T05:13:15.665Z,7.90
2019-01-27T05:15:44.637Z,7.80
2019-01-27T05:18:13.684Z,7.80
2019-01-27T05:20:42.922Z,7.80
2019-01-27T05:23:11.985Z,7.80
2019-01-27T05:25:41.037Z,7.70
2019-01-27T05:28:10.056Z,7.70
2019-01-27T05:30:39.023Z,7.60
2019-01-27T05:33:08.117Z,7.60
2019-01-27T05:35:37.421Z,7.50
2019-01-27T05:38:06.442Z,7.50
2019-01-27T05:40:35.794Z,7.40
2019-01-27T05:43:04.735Z,7.40
2019-01-27T05:45:33.779Z,7.30
2019-01-27T05:48:02.719Z,7.30
2019-01-27T05:50:31.749Z,7.40
2019-01-27T05:53:00.787Z,7.30
2019-01-27T05:55:29.820Z,7.30
2019-01-27T05:57:58.759Z,7.20
2019-01-27T06:00:31.702Z,7.10
2019-01-27T06:03:00.712Z,7.20
2019-01-27T06:05:29.995Z,7.10
2019-01-27T06:07:59.330Z,7.00
2019-01-27T06:10:28.405Z,6.90
2019-01-27T06:12:57.416Z,6.90
2019-01-27T06:15:26.509Z,6.80
2019-01-27T06:17:55.572Z,6.90
2019-01-27T06:20:24.568Z,6.90
2019-01-27T06:22:53.605Z,6.90
2019-01-27T06:25:25.844Z,7.00
2019-01-27T06:27:53.935Z,7.00
2019-01-27T06:30:24.542Z,7.00
2019-01-27T06:33:15.949Z,7.00
2019-01-27T06:35:44.994Z,7.00
2019-01-27T06:38:14.580Z,7.00
2019-01-27T06:40:43.585Z,7.10
2019-01-27T06:43:12.618Z,7.20
2019-01-27T06:45:41.623Z,7.20
2019-01-27T06:48:11.168Z,7.20
2019-01-27T06:50:40.185Z,7.20
2019-01-27T06:53:09.227Z,7.10
2019-01-27T06:55:38.245Z,7.20
2019-01-27T06:58:07.285Z,7.20
2019-01-27T07:00:47.876Z,7.20
2019-01-27T07:03:23.252Z,7.30
2019-01-27T07:05:57.980Z,7.30
2019-01-27T07:08:33.329Z,7.30
2019-01-27T07:11:24.531Z,7.30
2019-01-27T07:14:24.977Z,7.20
2019-01-27T07:17:15.828Z,7.10
2019-01-27T07:20:02.677Z,7.10
2019-01-27T07:22:53.860Z,7.10
2019-01-27T07:25:39.079Z,7.20
2019-01-27T07:28:15.439Z,7.30
2019-01-27T07:31:09.925Z,7.30
2019-01-27T07:34:13.324Z,7.30
2019-01-27T07:37:04.097Z,7.20
2019-01-27T07:39:42.280Z,7.30
2019-01-27T07:42:30.385Z,7.30
2019-01-27T07:45:08.810Z,7.50
2019-01-27T07:47:44.173Z,7.50
2019-01-27T07:50:29.265Z,7.60
2019-01-27T07:53:10.522Z,7.60
2019-01-27T07:56:04.626Z,7.60
2019-01-27T07:58:39.137Z,7.60
2019-01-27T08:01:14.456Z,7.60
2019-01-27T08:04:08.400Z,7.80
2019-01-27T08:06:59.552Z,7.90
2019-01-27T08:09:59.780Z,8.00
2019-01-27T08:12:36.249Z,8.00
2019-01-27T08:15:41.993Z,8.00
2019-01-27T08:18:35.857Z,8.00
2019-01-27T08:21:14.284Z,7.80
2019-01-27T08:24:00.168Z,7.90
2019-01-27T08:26:46.967Z,8.10
2019-01-27T08:29:27.869Z,8.00
2019-01-27T08:32:14.768Z,8.10
2019-01-27T08:34:56.557Z,8.10
2019-01-27T08:37:51.048Z,8.10
2019-01-27T08:40:31.221Z,8.20
2019-01-27T08:43:22.767Z,8.10
2019-01-27T08:45:59.603Z,8.00
2019-01-27T08:48:28.566Z,8.00
2019-01-27T08:50:57.585Z,8.30
2019-01-27T08:53:26.831Z,8.20
2019-01-27T08:55:55.978Z,8.20
2019-01-27T08:58:25.561Z,8.20
2019-01-27T09:01:00.737Z,8.20
2019-01-27T09:03:48.992Z,8.10
2019-01-27T09:06:46.202Z,7.90
2019-01-27T09:09:52.491Z,7.90
2019-01-27T09:12:39.454Z,8.00
2019-01-27T09:15:26.704Z,7.90
2019-01-27T09:18:13.616Z,8.00
2019-01-27T09:21:04.973Z,8.10
2019-01-27T09:24:12.572Z,8.20
2019-01-27T09:26:48.449Z,8.20
2019-01-27T09:29:43.013Z,8.30
2019-01-27T09:32:28.445Z,8.30
2019-01-27T09:35:11.172Z,8.20
2019-01-27T09:37:58.456Z,8.30
2019-01-27T09:40:49.622Z,8.30
2019-01-27T09:43:43.585Z,8.30
2019-01-27T09:46:43.921Z,8.40
2019-01-27T09:49:38.070Z,8.30
2019-01-27T09:52:13.374Z,8.40
2019-01-27T09:54:57.992Z,8.40
2019-01-27T09:57:55.385Z,8.40
2019-01-27T10:00:38.953Z,8.60
2019-01-27T10:03:26.311Z,8.70
2019-01-27T10:06:17.139Z,8.70
2019-01-27T10:09:05.284Z,8.70
2019-01-27T10:11:45.681Z,8.70
2019-01-27T10:14:31.532Z,8.80
2019-01-27T10:17:32.052Z,8.90
2019-01-27T10:20:26.196Z,9.00
2019-01-27T10:23:26.760Z,9.00
2019-01-27T10:26:17.701Z,9.00
2019-01-27T10:29:03.044Z,9.00
2019-01-27T10:31:45.667Z,8.90
2019-01-27T10:34:30.677Z,8.90
2019-01-27T10:37:14.313Z,8.90
2019-01-27T10:40:09.220Z,8.90
2019-01-27T10:42:42.575Z,8.90
2019-01-27T10:45:33.533Z,8.90
2019-01-27T10:48:20.316Z,8.80
2019-01-27T10:51:03.053Z,8.80
2019-01-27T10:53:50.072Z,8.70
2019-01-27T10:56:44.502Z,8.60
2019-01-27T10:59:30.905Z,8.50
2019-01-27T11:02:28.149Z,8.40
2019-01-27T11:05:07.905Z,8.50
2019-01-27T11:08:02.164Z,8.50
2019-01-27T11:10:53.616Z,8.40
2019-01-27T11:13:41.649Z,8.50
2019-01-27T11:16:20.888Z,8.60
2019-01-27T11:19:08.958Z,8.50
2019-01-27T11:21:55.973Z,8.60
2019-01-27T11:24:36.738Z,8.60
2019-01-27T11:27:33.079Z,8.60
2019-01-27T11:30:15.764Z,8.60
2019-01-27T11:33:06.669Z,8.60
2019-01-27T11:36:00.094Z,8.60
2019-01-27T11:38:48.890Z,8.70
2019-01-27T11:41:31.807Z,8.60
2019-01-27T11:44:09.853Z,8.70
2019-01-27T11:46:59.929Z,8.70
2019-01-27T11:50:00.092Z,8.80
2019-01-27T11:52:36.597Z,8.70
2019-01-27T11:55:07.956Z,8.60
2019-01-27T11:57:38.044Z,8.60
2019-01-27T12:00:10.400Z,8.60
2019-01-27T12:02:46.405Z,8.50
2019-01-27T12:05:11.751Z,8.50
2019-01-27T12:07:41.544Z,8.50
2019-01-27T12:10:14.217Z,8.70
2019-01-27T12:12:44.838Z,8.90
2019-01-27T12:15:16.928Z,9.00
2019-01-27T12:17:46.077Z,9.10
2019-01-27T12:20:16.994Z,9.10
2019-01-27T12:22:47.765Z,9.10
2019-01-27T12:25:18.176Z,9.00
2019-01-27T12:27:48.840Z,9.00
2019-01-27T12:30:19.842Z,9.10
2019-01-27T12:32:49.980Z,9.10
2019-01-27T12:35:19.997Z,9.10
2019-01-27T12:37:50.062Z,9.10
2019-01-27T12:40:22.449Z,9.00
2019-01-27T12:42:53.671Z,9.00
2019-01-27T12:45:25.465Z,8.90
2019-01-27T12:47:56.344Z,8.80
2019-01-27T12:50:27.464Z,8.80
2019-01-27T12:53:00.060Z,8.80
2019-01-27T12:55:29.974Z,8.90
2019-01-27T12:57:59.832Z,8.90
2019-01-27T13:00:36.320Z,8.90
2019-01-27T13:03:06.129Z,8.90
2019-01-27T13:05:36.028Z,8.90
2019-01-27T13:08:06.617Z,9.00
2019-01-27T13:10:38.668Z,9.00
2019-01-27T13:13:12.033Z,8.90
2019-01-27T13:15:40.210Z,8.80
2019-01-27T13:18:10.118Z,8.80
2019-01-27T13:20:40.276Z,8.70
2019-01-27T13:23:11.359Z,8.80
2019-01-27T13:25:40.938Z,8.80
2019-01-27T13:28:12.081Z,8.80
2019-01-27T13:30:43.281Z,9.00
2019-01-27T13:33:14.156Z,9.00
2019-01-27T13:35:44.563Z,9.00
2019-01-27T13:38:14.833Z,9.10
2019-01-27T13:40:45.745Z,9.00
2019-01-27T13:43:15.752Z,9.10
2019-01-27T13:45:45.293Z,9.10
2019-01-27T13:48:15.454Z,9.20
2019-01-27T13:50:45.848Z,9.20
2019-01-27T13:53:15.820Z,9.20
2019-01-27T13:55:45.702Z,9.00
2019-01-27T13:58:15.676Z,9.20
2019-01-27T14:00:45.947Z,9.10
2019-01-27T14:03:15.613Z,8.90
2019-01-27T14:05:45.962Z,9.00
2019-01-27T14:08:15.241Z,8.90
2019-01-27T14:10:45.344Z,8.90
2019-01-27T14:13:15.360Z,8.90
2019-01-27T14:15:45.514Z,8.80
2019-01-27T14:18:15.296Z,8.90
2019-01-27T14:20:45.433Z,8.90
2019-01-27T14:23:14.818Z,8.90
2019-01-27T14:25:44.428Z,8.80
2019-01-27T14:28:14.781Z,8.80
2019-01-27T14:30:45.394Z,8.80
2019-01-27T14:33:15.997Z,8.80
2019-01-27T14:35:46.179Z,8.80
2019-01-27T14:38:15.717Z,8.90
2019-01-27T14:40:46.153Z,8.80
2019-01-27T14:43:15.980Z,8.80
2019-01-27T14:45:45.245Z,8.90
2019-01-27T14:48:14.992Z,8.80
2019-01-27T14:50:47.134Z,8.80
2019-01-27T14:53:16.985Z,8.70
2019-01-27T14:55:46.437Z,8.60
2019-01-27T14:58:16.094Z,8.50
2019-01-27T15:00:46.728Z,8.50
2019-01-27T15:03:16.418Z,8.50
2019-01-27T15:05:46.345Z,8.40
2019-01-27T15:08:15.720Z,8.40
2019-01-27T15:10:46.239Z,8.30
2019-01-27T15:13:15.992Z,8.30
2019-01-27T15:15:47.436Z,8.20
2019-01-27T15:18:19.734Z,8.20
2019-01-27T15:21:03.317Z,8.20
2019-01-27T15:23:33.276Z,8.10
2019-01-27T15:26:03.641Z,8.00
2019-01-27T15:28:33.080Z,8.00
2019-01-27T15:31:03.066Z,8.00
2019-01-27T15:33:33.824Z,8.00
2019-01-27T15:36:05.890Z,8.00
2019-01-27T15:38:35.971Z,7.90
2019-01-27T15:41:06.250Z,7.80
2019-01-27T15:43:36.478Z,7.70
2019-01-27T15:46:06.718Z,7.70
2019-01-27T15:48:37.190Z,7.70
2019-01-27T15:51:07.451Z,7.60
2019-01-27T15:53:38.280Z,7.40
2019-01-27T15:56:10.126Z,7.40
2019-01-27T15:58:42.643Z,7.20
2019-01-27T16:01:13.452Z,7.10
2019-01-27T16:03:44.273Z,7.00
2019-01-27T16:06:15.939Z,7.00
2019-01-27T16:08:46.668Z,7.00
2019-01-27T16:11:17.988Z,7.00
2019-01-27T16:13:48.955Z,7.00
2019-01-27T16:16:19.902Z,6.90
2019-01-27T16:18:50.769Z,6.90
2019-01-27T16:21:21.682Z,6.90
2019-01-27T16:23:55.640Z,7.00
2019-01-27T16:26:26.633Z,7.10
2019-01-27T16:28:57.652Z,7.10
2019-01-27T16:31:41.341Z,7.10
2019-01-27T16:34:35.828Z,7.00
2019-01-27T16:37:06.829Z,6.90
2019-01-27T16:39:37.707Z,7.00
2019-01-27T16:42:08.313Z,7.00
2019-01-27T16:44:39.257Z,6.90
2019-01-27T16:47:09.278Z,6.70
2019-01-27T16:49:39.684Z,6.70
2019-01-27T16:52:10.428Z,6.60
2019-01-27T16:54:39.861Z,6.60
2019-01-27T16:57:09.767Z,6.60
2019-01-27T16:59:40.267Z,6.60
2019-01-27T17:02:10.607Z,6.50
2019-01-27T17:04:40.132Z,6.60
2019-01-27T17:07:10.439Z,6.60
2019-01-27T17:09:41.402Z,6.60
2019-01-27T17:12:12.444Z,6.50
2019-01-27T17:14:42.717Z,6.60
2019-01-27T17:17:13.932Z,6.50
2019-01-27T17:19:45.415Z,6.50
2019-01-27T17:22:16.369Z,6.70
2019-01-27T17:24:46.541Z,6.60
2019-01-27T17:27:17.025Z,6.60
2019-01-27T17:29:47.335Z,6.50
2019-01-27T17:32:18.285Z,6.50
2019-01-27T17:34:48.618Z,6.50
2019-01-27T17:37:19.149Z,6.50
2019-01-27T17:39:49.044Z,6.50
2019-01-27T17:42:19.473Z,6.50
2019-01-27T17:44:49.588Z,6.50
2019-01-27T17:47:19.938Z,6.50
2019-01-27T17:49:50.853Z,6.40
2019-01-27T17:52:22.169Z,6.50
2019-01-27T17:54:52.938Z,6.40
2019-01-27T17:57:47.957Z,6.40
2019-01-27T18:00:45.507Z,6.50
2019-01-27T18:03:36.839Z,6.40
2019-01-27T18:06:15.341Z,6.40
2019-01-27T18:08:58.893Z,6.30
2019-01-27T18:11:34.695Z,6.30
2019-01-27T18:14:09.793Z,6.30
2019-01-27T18:16:40.596Z,6.30
2019-01-27T18:19:10.701Z,6.30
2019-01-27T18:21:41.662Z,6.30
2019-01-27T18:24:12.541Z,6.30
2019-01-27T18:26:43.130Z,6.20
2019-01-27T18:29:14.237Z,6.20
2019-01-27T18:31:44.792Z,6.30
2019-01-27T18:34:15.547Z,6.20
2019-01-27T18:36:47.508Z,6.20
2019-01-27T18:39:17.663Z,6.10
2019-01-27T18:41:48.751Z,6.10
2019-01-27T18:44:20.034Z,6.00
2019-01-27T18:46:50.941Z,6.10
2019-01-27T18:49:22.176Z,6.00
2019-01-27T18:51:52.812Z,6.00
2019-01-27T18:54:53.786Z,5.90
2019-01-27T18:57:39.956Z,6.00
2019-01-27T19:00:41.040Z,5.90
2019-01-27T19:03:17.637Z,5.90
2019-01-27T19:06:02.751Z,5.90
2019-01-27T19:08:58.510Z,6.00
2019-01-27T19:11:41.184Z,6.00
2019-01-27T19:14:27.944Z,5.90
2019-01-27T19:17:15.731Z,5.80
2019-01-27T19:20:10.443Z,5.80
2019-01-27T19:22:54.708Z,5.80
2019-01-27T19:25:41.500Z,5.80
2019-01-27T19:28:42.451Z,5.70
2019-01-27T19:31:19.518Z,5.70
2019-01-27T19:34:15.455Z,5.70
2019-01-27T19:37:04.326Z,5.60
2019-01-27T19:39:52.660Z,5.60
2019-01-27T19:42:41.163Z,5.60
2019-01-27T19:45:31.101Z,5.70
2019-01-27T19:48:18.330Z,5.70
2019-01-27T19:51:08.060Z,5.60
2019-01-27T19:53:49.120Z,5.50
2019-01-27T19:56:31.186Z,5.50
2019-01-27T19:59:17.968Z,5.40
2019-01-27T20:02:18.519Z,5.40
2019-01-27T20:05:06.973Z,5.30
2019-01-27T20:07:50.581Z,5.30
2019-01-27T20:10:45.192Z,5.30
2019-01-27T20:13:36.598Z,5.20
2019-01-27T20:16:31.168Z,5.20
2019-01-27T20:19:23.072Z,5.10
2019-01-27T20:22:09.872Z,5.10
2019-01-27T20:25:10.594Z,5.00
2019-01-27T20:27:52.030Z,5.00
2019-01-27T20:30:44.113Z,4.90
2019-01-27T20:33:32.544Z,4.90
2019-01-27T20:36:24.683Z,4.90
2019-01-27T20:39:16.206Z,5.00
2019-01-27T20:41:58.301Z,4.90
2019-01-27T20:44:49.793Z,4.90
2019-01-27T20:47:36.923Z,4.90
2019-01-27T20:50:40.903Z,4.90
2019-01-27T20:53:25.265Z,4.80
2019-01-27T20:56:19.615Z,4.70
2019-01-27T20:59:07.842Z,4.60
2019-01-27T21:01:56.411Z,4.60
2019-01-27T21:04:56.571Z,4.60
2019-01-27T21:07:53.905Z,4.60
2019-01-27T21:10:48.264Z,4.50
2019-01-27T21:13:25.774Z,4.50
2019-01-27T21:16:12.735Z,4.40
2019-01-27T21:18:49.462Z,4.40
2019-01-27T21:21:21.100Z,4.40
2019-01-27T21:23:52.360Z,4.30
2019-01-27T21:26:24.582Z,4.30
2019-01-27T21:28:55.460Z,4.30
2019-01-27T21:31:26.606Z,4.30
2019-01-27T21:33:57.149Z,4.40
2019-01-27T21:36:28.364Z,4.30
2019-01-27T21:38:58.214Z,4.40
2019-01-27T21:41:28.499Z,4.30
2019-01-27T21:43:59.340Z,4.30
2019-01-27T21:46:29.966Z,4.30
2019-01-27T21:48:59.623Z,4.40
2019-01-27T21:51:29.301Z,4.30
2019-01-27T21:53:59.208Z,4.40
2019-01-27T21:56:29.334Z,4.40
2019-01-27T21:58:59.769Z,4.40
2019-01-27T22:01:29.773Z,4.50
2019-01-27T22:03:59.695Z,4.50
2019-01-27T22:06:30.026Z,4.40
2019-01-27T22:08:59.492Z,4.40
2019-01-27T22:11:28.803Z,4.40
2019-01-27T22:13:58.180Z,4.30
2019-01-27T22:16:27.341Z,4.30
2019-01-27T22:18:56.728Z,4.10
2019-01-27T22:21:26.234Z,4.10
2019-01-27T22:23:55.533Z,4.00
2019-01-27T22:26:24.749Z,3.80
2019-01-27T22:28:53.761Z,3.60
2019-01-27T22:31:22.682Z,3.70
2019-01-27T22:33:51.561Z,3.70
2019-01-27T22:36:20.847Z,3.50
2019-01-27T22:38:50.113Z,3.50
2019-01-27T22:41:19.126Z,3.50
2019-01-27T22:43:48.149Z,3.50
2019-01-27T22:46:17.449Z,3.40
2019-01-27T22:48:46.456Z,3.40
2019-01-27T22:51:15.380Z,3.40
2019-01-27T22:53:44.683Z,3.30
2019-01-27T22:56:13.883Z,3.20
2019-01-27T22:58:42.888Z,3.30
2019-01-27T23:01:15.432Z,3.30
2019-01-27T23:03:46.289Z,3.30
2019-01-27T23:06:15.301Z,3.30
2019-01-27T23:08:44.244Z,3.30
2019-01-27T23:11:13.581Z,3.20
2019-01-27T23:13:42.988Z,3.30
2019-01-27T23:16:11.988Z,3.30
2019-01-27T23:18:41.353Z,3.30
2019-01-27T23:21:10.354Z,3.20
2019-01-27T23:23:39.365Z,3.20
2019-01-27T23:26:08.663Z,3.20
2019-01-27T23:28:37.527Z,3.30
2019-01-27T23:31:06.733Z,3.30
2019-01-27T23:33:36.048Z,3.20
2019-01-27T23:36:05.060Z,3.30
2019-01-27T23:38:34.140Z,3.30
2019-01-27T23:41:03.076Z,3.20
2019-01-27T23:43:32.075Z,3.20
2019-01-27T23:46:01.077Z,3.20
2019-01-27T23:48:30.093Z,3.10
2019-01-27T23:50:59.092Z,3.20
2019-01-27T23:53:28.035Z,3.20
2019-01-27T23:55:57.296Z,3.30
2019-01-27T23:58:26.216Z,3.30
